sensor_id;sensor_type;location;lat;lon;timestamp;P1;durP1;ratioP1;P2;durP2;ratioP2
57441;SDS011;43284;47.042;15.498;2022-09-16T00:00:49;3.63;;;2.30;;
57441;SDS011;43284;47.042;15.498;2022-09-16T00:03:17;5.78;;;2.67;;
57441;SDS011;43284;47.042;15.498;2022-09-16T00:05:46;6.25;;;2.53;;
57441;SDS011;43284;47.042;15.498;2022-09-16T00:08:15;4.53;;;1.90;;
57441;SDS011;43284;47.042;15.498;2022-09-16T00:10:44;6.75;;;2.35;;
57441;SDS011;43284;47.042;15.498;2022-09-16T00:13:11;4.30;;;2.00;;
57441;SDS011;43284;47.042;15.498;2022-09-16T00:15:44;3.15;;;2.15;;
57441;SDS011;43284;47.042;15.498;2022-09-16T00:18:18;3.35;;;2.42;;
57441;SDS011;43284;47.042;15.498;2022-09-16T00:20:47;3.80;;;2.00;;
57441;SDS011;43284;47.042;15.498;2022-09-16T00:23:15;4.05;;;1.90;;
57441;SDS011;43284;47.042;15.498;2022-09-16T00:25:48;5.32;;;1.92;;
57441;SDS011;43284;47.042;15.498;2022-09-16T00:28:20;5.97;;;3.03;;
57441;SDS011;43284;47.042;15.498;2022-09-16T00:30:48;3.40;;;2.05;;
57441;SDS011;43284;47.042;15.498;2022-09-16T00:33:16;3.92;;;2.80;;
57441;SDS011;43284;47.042;15.498;2022-09-16T00:35:45;6.47;;;2.47;;
57441;SDS011;43284;47.042;15.498;2022-09-16T00:38:14;7.47;;;2.85;;
57441;SDS011;43284;47.042;15.498;2022-09-16T00:40:45;7.53;;;3.25;;
57441;SDS011;43284;47.042;15.498;2022-09-16T00:43:14;6.10;;;3.10;;
57441;SDS011;43284;47.042;15.498;2022-09-16T00:45:44;5.57;;;2.45;;
57441;SDS011;43284;47.042;15.498;2022-09-16T00:48:21;4.18;;;2.67;;
57441;SDS011;43284;47.042;15.498;2022-09-16T00:50:53;8.35;;;2.50;;
57441;SDS011;43284;47.042;15.498;2022-09-16T00:53:30;4.97;;;2.45;;
57441;SDS011;43284;47.042;15.498;2022-09-16T00:56:03;6.45;;;2.90;;
57441;SDS011;43284;47.042;15.498;2022-09-16T00:58:37;3.78;;;2.33;;
57441;SDS011;43284;47.042;15.498;2022-09-16T01:01:17;7.18;;;2.45;;
57441;SDS011;43284;47.042;15.498;2022-09-16T01:03:45;4.53;;;2.63;;
57441;SDS011;43284;47.042;15.498;2022-09-16T01:06:21;4.68;;;2.33;;
57441;SDS011;43284;47.042;15.498;2022-09-16T01:08:52;9.77;;;2.40;;
57441;SDS011;43284;47.042;15.498;2022-09-16T01:11:22;4.38;;;2.03;;
57441;SDS011;43284;47.042;15.498;2022-09-16T01:13:51;8.15;;;2.45;;
57441;SDS011;43284;47.042;15.498;2022-09-16T01:16:25;4.35;;;2.50;;
57441;SDS011;43284;47.042;15.498;2022-09-16T01:19:04;5.60;;;1.98;;
57441;SDS011;43284;47.042;15.498;2022-09-16T01:24:33;6.07;;;2.40;;
57441;SDS011;43284;47.042;15.498;2022-09-16T01:30:36;3.35;;;2.45;;
57441;SDS011;43284;47.042;15.498;2022-09-16T01:33:06;6.43;;;2.22;;
57441;SDS011;43284;47.042;15.498;2022-09-16T01:36:07;5.55;;;2.50;;
57441;SDS011;43284;47.042;15.498;2022-09-16T01:47:24;4.03;;;2.22;;
57441;SDS011;43284;47.042;15.498;2022-09-16T01:50:21;5.35;;;1.88;;
57441;SDS011;43284;47.042;15.498;2022-09-16T01:55:47;3.72;;;2.25;;
57441;SDS011;43284;47.042;15.498;2022-09-16T01:58:44;8.48;;;2.03;;
57441;SDS011;43284;47.042;15.498;2022-09-16T02:04:31;4.60;;;1.80;;
57441;SDS011;43284;47.042;15.498;2022-09-16T02:07:11;2.90;;;1.60;;
57441;SDS011;43284;47.042;15.498;2022-09-16T02:09:44;9.80;;;1.98;;
57441;SDS011;43284;47.042;15.498;2022-09-16T02:12:25;5.15;;;1.60;;
57441;SDS011;43284;47.042;15.498;2022-09-16T02:15:00;2.03;;;1.40;;
57441;SDS011;43284;47.042;15.498;2022-09-16T02:17:33;4.60;;;1.70;;
57441;SDS011;43284;47.042;15.498;2022-09-16T02:20:05;2.92;;;1.80;;
57441;SDS011;43284;47.042;15.498;2022-09-16T02:22:41;4.85;;;2.55;;
57441;SDS011;43284;47.042;15.498;2022-09-16T02:25:13;6.35;;;1.60;;
57441;SDS011;43284;47.042;15.498;2022-09-16T02:27:44;6.07;;;1.80;;
57441;SDS011;43284;47.042;15.498;2022-09-16T02:30:15;5.15;;;1.73;;
57441;SDS011;43284;47.042;15.498;2022-09-16T02:32:47;2.67;;;1.95;;
57441;SDS011;43284;47.042;15.498;2022-09-16T02:35:20;4.43;;;1.92;;
57441;SDS011;43284;47.042;15.498;2022-09-16T02:37:51;2.47;;;1.73;;
57441;SDS011;43284;47.042;15.498;2022-09-16T02:40:35;3.63;;;1.80;;
57441;SDS011;43284;47.042;15.498;2022-09-16T02:43:07;5.78;;;1.60;;
57441;SDS011;43284;47.042;15.498;2022-09-16T02:45:44;2.90;;;1.45;;
57441;SDS011;43284;47.042;15.498;2022-09-16T02:48:43;2.95;;;1.80;;
57441;SDS011;43284;47.042;15.498;2022-09-16T02:56:32;5.13;;;1.60;;
57441;SDS011;43284;47.042;15.498;2022-09-16T02:59:05;3.17;;;1.77;;
57441;SDS011;43284;47.042;15.498;2022-09-16T03:01:38;5.40;;;1.90;;
57441;SDS011;43284;47.042;15.498;2022-09-16T03:04:08;14.63;;;1.90;;
57441;SDS011;43284;47.042;15.498;2022-09-16T03:06:40;3.80;;;1.75;;
57441;SDS011;43284;47.042;15.498;2022-09-16T03:09:08;2.10;;;1.88;;
57441;SDS011;43284;47.042;15.498;2022-09-16T03:20:15;5.72;;;2.40;;
57441;SDS011;43284;47.042;15.498;2022-09-16T03:23:11;5.65;;;1.80;;
57441;SDS011;43284;47.042;15.498;2022-09-16T03:31:57;3.38;;;2.10;;
57441;SDS011;43284;47.042;15.498;2022-09-16T03:34:32;8.65;;;2.17;;
57441;SDS011;43284;47.042;15.498;2022-09-16T03:37:08;4.65;;;1.80;;
57441;SDS011;43284;47.042;15.498;2022-09-16T03:39:38;3.83;;;1.88;;
57441;SDS011;43284;47.042;15.498;2022-09-16T03:42:08;4.32;;;1.60;;
57441;SDS011;43284;47.042;15.498;2022-09-16T03:44:37;6.05;;;1.85;;
57441;SDS011;43284;47.042;15.498;2022-09-16T03:47:05;3.42;;;1.73;;
57441;SDS011;43284;47.042;15.498;2022-09-16T03:49:34;9.90;;;3.67;;
57441;SDS011;43284;47.042;15.498;2022-09-16T03:52:02;7.40;;;1.80;;
57441;SDS011;43284;47.042;15.498;2022-09-16T03:54:34;10.48;;;3.72;;
57441;SDS011;43284;47.042;15.498;2022-09-16T03:57:02;5.82;;;2.45;;
57441;SDS011;43284;47.042;15.498;2022-09-16T03:59:30;5.72;;;2.15;;
57441;SDS011;43284;47.042;15.498;2022-09-16T04:01:59;4.38;;;2.45;;
57441;SDS011;43284;47.042;15.498;2022-09-16T04:04:27;4.20;;;2.38;;
57441;SDS011;43284;47.042;15.498;2022-09-16T04:06:54;2.47;;;2.08;;
57441;SDS011;43284;47.042;15.498;2022-09-16T04:09:21;4.82;;;2.50;;
57441;SDS011;43284;47.042;15.498;2022-09-16T04:11:48;4.45;;;2.78;;
57441;SDS011;43284;47.042;15.498;2022-09-16T04:14:16;3.95;;;2.72;;
57441;SDS011;43284;47.042;15.498;2022-09-16T04:16:43;4.85;;;2.53;;
57441;SDS011;43284;47.042;15.498;2022-09-16T04:19:11;3.38;;;2.63;;
57441;SDS011;43284;47.042;15.498;2022-09-16T04:21:39;6.43;;;2.72;;
57441;SDS011;43284;47.042;15.498;2022-09-16T04:24:07;4.15;;;2.90;;
57441;SDS011;43284;47.042;15.498;2022-09-16T04:26:34;5.60;;;2.80;;
57441;SDS011;43284;47.042;15.498;2022-09-16T04:29:01;6.68;;;3.40;;
57441;SDS011;43284;47.042;15.498;2022-09-16T04:31:28;7.10;;;3.60;;
57441;SDS011;43284;47.042;15.498;2022-09-16T04:33:56;4.00;;;2.97;;
57441;SDS011;43284;47.042;15.498;2022-09-16T04:36:24;5.20;;;3.13;;
57441;SDS011;43284;47.042;15.498;2022-09-16T04:38:51;5.55;;;3.22;;
57441;SDS011;43284;47.042;15.498;2022-09-16T04:41:20;6.90;;;3.75;;
57441;SDS011;43284;47.042;15.498;2022-09-16T04:43:50;7.28;;;3.78;;
57441;SDS011;43284;47.042;15.498;2022-09-16T04:46:19;6.72;;;3.40;;
57441;SDS011;43284;47.042;15.498;2022-09-16T04:48:47;4.88;;;3.40;;
57441;SDS011;43284;47.042;15.498;2022-09-16T04:51:15;6.55;;;4.18;;
57441;SDS011;43284;47.042;15.498;2022-09-16T04:53:45;5.78;;;3.67;;
57441;SDS011;43284;47.042;15.498;2022-09-16T04:56:13;8.25;;;2.58;;
57441;SDS011;43284;47.042;15.498;2022-09-16T04:58:45;5.90;;;2.63;;
57441;SDS011;43284;47.042;15.498;2022-09-16T05:01:18;7.25;;;2.38;;
57441;SDS011;43284;47.042;15.498;2022-09-16T05:03:51;3.05;;;2.35;;
57441;SDS011;43284;47.042;15.498;2022-09-16T05:06:24;4.13;;;2.58;;
57441;SDS011;43284;47.042;15.498;2022-09-16T05:08:54;4.82;;;2.70;;
57441;SDS011;43284;47.042;15.498;2022-09-16T05:11:23;9.88;;;4.47;;
57441;SDS011;43284;47.042;15.498;2022-09-16T05:13:52;5.30;;;2.58;;
57441;SDS011;43284;47.042;15.498;2022-09-16T05:16:21;6.00;;;2.80;;
57441;SDS011;43284;47.042;15.498;2022-09-16T05:18:50;4.60;;;2.25;;
57441;SDS011;43284;47.042;15.498;2022-09-16T05:21:21;4.85;;;2.17;;
57441;SDS011;43284;47.042;15.498;2022-09-16T05:23:50;3.05;;;1.73;;
57441;SDS011;43284;47.042;15.498;2022-09-16T05:26:22;4.63;;;1.70;;
57441;SDS011;43284;47.042;15.498;2022-09-16T05:28:52;7.00;;;1.60;;
57441;SDS011;43284;47.042;15.498;2022-09-16T05:31:21;2.45;;;1.25;;
57441;SDS011;43284;47.042;15.498;2022-09-16T05:33:58;3.63;;;1.48;;
57441;SDS011;43284;47.042;15.498;2022-09-16T05:36:29;6.13;;;1.85;;
57441;SDS011;43284;47.042;15.498;2022-09-16T05:38:58;8.50;;;1.55;;
57441;SDS011;43284;47.042;15.498;2022-09-16T05:41:26;2.03;;;1.30;;
57441;SDS011;43284;47.042;15.498;2022-09-16T05:43:53;3.30;;;1.40;;
57441;SDS011;43284;47.042;15.498;2022-09-16T05:46:25;3.22;;;2.03;;
57441;SDS011;43284;47.042;15.498;2022-09-16T05:48:54;3.25;;;1.92;;
57441;SDS011;43284;47.042;15.498;2022-09-16T05:51:22;6.93;;;2.13;;
57441;SDS011;43284;47.042;15.498;2022-09-16T05:53:51;2.67;;;2.10;;
57441;SDS011;43284;47.042;15.498;2022-09-16T05:56:20;4.30;;;2.97;;
57441;SDS011;43284;47.042;15.498;2022-09-16T05:58:51;4.43;;;2.92;;
57441;SDS011;43284;47.042;15.498;2022-09-16T06:01:20;5.40;;;3.20;;
57441;SDS011;43284;47.042;15.498;2022-09-16T06:03:52;5.82;;;2.85;;
57441;SDS011;43284;47.042;15.498;2022-09-16T06:08:58;5.47;;;3.53;;
57441;SDS011;43284;47.042;15.498;2022-09-16T06:11:26;6.50;;;4.30;;
57441;SDS011;43284;47.042;15.498;2022-09-16T06:13:59;6.50;;;3.63;;
57441;SDS011;43284;47.042;15.498;2022-09-16T06:16:31;7.20;;;3.97;;
57441;SDS011;43284;47.042;15.498;2022-09-16T06:18:59;5.32;;;3.78;;
57441;SDS011;43284;47.042;15.498;2022-09-16T06:21:27;8.07;;;4.10;;
57441;SDS011;43284;47.042;15.498;2022-09-16T06:23:55;6.10;;;3.70;;
57441;SDS011;43284;47.042;15.498;2022-09-16T06:26:24;6.25;;;3.90;;
57441;SDS011;43284;47.042;15.498;2022-09-16T06:28:52;4.20;;;3.35;;
57441;SDS011;43284;47.042;15.498;2022-09-16T06:31:21;7.30;;;4.35;;
57441;SDS011;43284;47.042;15.498;2022-09-16T06:33:50;5.53;;;3.22;;
57441;SDS011;43284;47.042;15.498;2022-09-16T06:36:25;4.68;;;3.50;;
57441;SDS011;43284;47.042;15.498;2022-09-16T06:38:58;5.00;;;3.67;;
57441;SDS011;43284;47.042;15.498;2022-09-16T06:41:25;6.32;;;3.65;;
57441;SDS011;43284;47.042;15.498;2022-09-16T06:43:53;10.35;;;4.47;;
57441;SDS011;43284;47.042;15.498;2022-09-16T06:46:22;7.95;;;3.97;;
57441;SDS011;43284;47.042;15.498;2022-09-16T06:48:52;7.30;;;4.05;;
57441;SDS011;43284;47.042;15.498;2022-09-16T06:51:22;5.00;;;3.92;;
57441;SDS011;43284;47.042;15.498;2022-09-16T06:54:00;6.57;;;4.00;;
57441;SDS011;43284;47.042;15.498;2022-09-16T06:56:30;5.82;;;3.20;;
57441;SDS011;43284;47.042;15.498;2022-09-16T06:59:01;6.50;;;3.53;;
57441;SDS011;43284;47.042;15.498;2022-09-16T07:01:29;4.25;;;3.60;;
57441;SDS011;43284;47.042;15.498;2022-09-16T07:03:58;8.93;;;3.75;;
57441;SDS011;43284;47.042;15.498;2022-09-16T07:06:30;7.60;;;3.72;;
57441;SDS011;43284;47.042;15.498;2022-09-16T07:08:58;6.75;;;3.80;;
57441;SDS011;43284;47.042;15.498;2022-09-16T07:11:25;5.55;;;3.42;;
57441;SDS011;43284;47.042;15.498;2022-09-16T07:13:53;8.93;;;3.35;;
57441;SDS011;43284;47.042;15.498;2022-09-16T07:16:21;5.65;;;3.33;;
57441;SDS011;43284;47.042;15.498;2022-09-16T07:18:56;7.97;;;4.13;;
57441;SDS011;43284;47.042;15.498;2022-09-16T07:21:25;11.82;;;3.95;;
57441;SDS011;43284;47.042;15.498;2022-09-16T07:23:57;6.70;;;3.60;;
57441;SDS011;43284;47.042;15.498;2022-09-16T07:26:27;6.95;;;3.72;;
57441;SDS011;43284;47.042;15.498;2022-09-16T07:29:00;6.72;;;3.42;;
57441;SDS011;43284;47.042;15.498;2022-09-16T07:31:30;6.63;;;3.47;;
57441;SDS011;43284;47.042;15.498;2022-09-16T07:33:59;4.93;;;3.42;;
57441;SDS011;43284;47.042;15.498;2022-09-16T07:36:28;7.22;;;3.50;;
57441;SDS011;43284;47.042;15.498;2022-09-16T07:38:58;8.88;;;3.95;;
57441;SDS011;43284;47.042;15.498;2022-09-16T07:41:27;3.75;;;2.83;;
57441;SDS011;43284;47.042;15.498;2022-09-16T07:43:56;5.15;;;3.50;;
57441;SDS011;43284;47.042;15.498;2022-09-16T07:46:29;6.38;;;3.50;;
57441;SDS011;43284;47.042;15.498;2022-09-16T07:48:58;4.70;;;3.10;;
57441;SDS011;43284;47.042;15.498;2022-09-16T07:51:27;8.50;;;3.88;;
57441;SDS011;43284;47.042;15.498;2022-09-16T07:53:58;10.55;;;4.18;;
57441;SDS011;43284;47.042;15.498;2022-09-16T07:56:29;4.70;;;3.63;;
57441;SDS011;43284;47.042;15.498;2022-09-16T07:59:01;7.45;;;3.90;;
57441;SDS011;43284;47.042;15.498;2022-09-16T08:01:30;5.68;;;3.58;;
57441;SDS011;43284;47.042;15.498;2022-09-16T08:03:58;8.13;;;4.05;;
57441;SDS011;43284;47.042;15.498;2022-09-16T08:06:27;5.57;;;3.72;;
57441;SDS011;43284;47.042;15.498;2022-09-16T08:08:57;12.48;;;4.18;;
57441;SDS011;43284;47.042;15.498;2022-09-16T08:11:26;5.75;;;4.10;;
57441;SDS011;43284;47.042;15.498;2022-09-16T08:13:54;6.72;;;3.50;;
57441;SDS011;43284;47.042;15.498;2022-09-16T08:16:24;8.25;;;4.22;;
57441;SDS011;43284;47.042;15.498;2022-09-16T08:18:54;5.07;;;3.40;;
57441;SDS011;43284;47.042;15.498;2022-09-16T08:21:23;6.25;;;4.22;;
57441;SDS011;43284;47.042;15.498;2022-09-16T08:23:53;6.00;;;3.95;;
57441;SDS011;43284;47.042;15.498;2022-09-16T08:26:20;9.10;;;4.28;;
57441;SDS011;43284;47.042;15.498;2022-09-16T08:28:48;7.43;;;4.32;;
57441;SDS011;43284;47.042;15.498;2022-09-16T08:31:18;7.03;;;4.40;;
57441;SDS011;43284;47.042;15.498;2022-09-16T08:33:46;6.65;;;4.13;;
57441;SDS011;43284;47.042;15.498;2022-09-16T08:36:14;7.40;;;3.92;;
57441;SDS011;43284;47.042;15.498;2022-09-16T08:38:45;6.82;;;4.63;;
57441;SDS011;43284;47.042;15.498;2022-09-16T08:46:35;6.63;;;4.25;;
57441;SDS011;43284;47.042;15.498;2022-09-16T08:52:02;6.18;;;4.07;;
57441;SDS011;43284;47.042;15.498;2022-09-16T08:54:38;7.53;;;3.88;;
57441;SDS011;43284;47.042;15.498;2022-09-16T08:57:20;7.38;;;3.72;;
57441;SDS011;43284;47.042;15.498;2022-09-16T08:59:53;5.47;;;3.50;;
57441;SDS011;43284;47.042;15.498;2022-09-16T09:02:36;5.85;;;3.75;;
57441;SDS011;43284;47.042;15.498;2022-09-16T09:05:24;8.05;;;3.55;;
57441;SDS011;43284;47.042;15.498;2022-09-16T09:14:18;5.60;;;3.92;;
57441;SDS011;43284;47.042;15.498;2022-09-16T09:23:18;8.00;;;4.00;;
57441;SDS011;43284;47.042;15.498;2022-09-16T09:40:19;5.22;;;3.03;;
57441;SDS011;43284;47.042;15.498;2022-09-16T09:45:57;3.47;;;2.65;;
57441;SDS011;43284;47.042;15.498;2022-09-16T09:48:52;4.97;;;2.92;;
57441;SDS011;43284;47.042;15.498;2022-09-16T09:51:42;3.25;;;2.42;;
57441;SDS011;43284;47.042;15.498;2022-09-16T09:54:49;4.32;;;2.40;;
57441;SDS011;43284;47.042;15.498;2022-09-16T09:57:38;4.13;;;1.80;;
57441;SDS011;43284;47.042;15.498;2022-09-16T10:00:17;2.50;;;1.90;;
57441;SDS011;43284;47.042;15.498;2022-09-16T10:02:49;2.85;;;2.22;;
57441;SDS011;43284;47.042;15.498;2022-09-16T10:05:29;3.88;;;2.75;;
57441;SDS011;43284;47.042;15.498;2022-09-16T10:07:58;3.22;;;2.55;;
57441;SDS011;43284;47.042;15.498;2022-09-16T10:10:54;3.58;;;2.40;;
57441;SDS011;43284;47.042;15.498;2022-09-16T10:13:27;3.55;;;2.58;;
57441;SDS011;43284;47.042;15.498;2022-09-16T10:18:38;5.25;;;2.97;;
57441;SDS011;43284;47.042;15.498;2022-09-16T10:21:08;6.38;;;3.65;;
57441;SDS011;43284;47.042;15.498;2022-09-16T10:23:39;5.80;;;3.28;;
57441;SDS011;43284;47.042;15.498;2022-09-16T10:28:54;4.80;;;3.30;;
57441;SDS011;43284;47.042;15.498;2022-09-16T10:31:24;5.35;;;3.22;;
57441;SDS011;43284;47.042;15.498;2022-09-16T10:34:03;5.50;;;3.40;;
57441;SDS011;43284;47.042;15.498;2022-09-16T10:36:42;4.28;;;3.17;;
57441;SDS011;43284;47.042;15.498;2022-09-16T10:39:20;4.88;;;2.90;;
57441;SDS011;43284;47.042;15.498;2022-09-16T10:41:49;4.45;;;2.97;;
57441;SDS011;43284;47.042;15.498;2022-09-16T10:44:26;5.35;;;3.42;;
57441;SDS011;43284;47.042;15.498;2022-09-16T10:47:05;5.47;;;3.40;;
57441;SDS011;43284;47.042;15.498;2022-09-16T10:49:46;8.90;;;4.07;;
57441;SDS011;43284;47.042;15.498;2022-09-16T10:52:21;8.57;;;4.25;;
57441;SDS011;43284;47.042;15.498;2022-09-16T10:54:53;5.60;;;3.80;;
57441;SDS011;43284;47.042;15.498;2022-09-16T10:57:22;6.05;;;3.33;;
57441;SDS011;43284;47.042;15.498;2022-09-16T10:59:57;9.88;;;4.75;;
57441;SDS011;43284;47.042;15.498;2022-09-16T11:02:51;7.60;;;4.57;;
57441;SDS011;43284;47.042;15.498;2022-09-16T11:08:17;9.93;;;4.88;;
57441;SDS011;43284;47.042;15.498;2022-09-16T11:14:12;10.15;;;5.10;;
57441;SDS011;43284;47.042;15.498;2022-09-16T11:17:11;8.20;;;5.00;;
57441;SDS011;43284;47.042;15.498;2022-09-16T11:22:26;8.55;;;5.60;;
57441;SDS011;43284;47.042;15.498;2022-09-16T11:25:20;9.15;;;5.63;;
57441;SDS011;43284;47.042;15.498;2022-09-16T11:28:32;9.10;;;5.20;;
57441;SDS011;43284;47.042;15.498;2022-09-16T11:31:07;9.23;;;5.20;;
57441;SDS011;43284;47.042;15.498;2022-09-16T11:33:47;8.35;;;5.40;;
57441;SDS011;43284;47.042;15.498;2022-09-16T11:36:39;10.40;;;4.78;;
57441;SDS011;43284;47.042;15.498;2022-09-16T11:44:45;8.13;;;4.85;;
57441;SDS011;43284;47.042;15.498;2022-09-16T11:52:46;6.20;;;3.60;;
57441;SDS011;43284;47.042;15.498;2022-09-16T11:58:20;4.15;;;3.28;;
57441;SDS011;43284;47.042;15.498;2022-09-16T12:01:25;5.43;;;3.78;;
57441;SDS011;43284;47.042;15.498;2022-09-16T12:04:15;5.20;;;3.40;;
57441;SDS011;43284;47.042;15.498;2022-09-16T12:09:59;5.35;;;3.17;;
57441;SDS011;43284;47.042;15.498;2022-09-16T12:12:44;4.95;;;3.30;;
57441;SDS011;43284;47.042;15.498;2022-09-16T12:15:33;3.65;;;2.67;;
57441;SDS011;43284;47.042;15.498;2022-09-16T12:18:30;5.68;;;3.42;;
57441;SDS011;43284;47.042;15.498;2022-09-16T12:24:00;4.85;;;3.53;;
57441;SDS011;43284;47.042;15.498;2022-09-16T12:26:54;6.65;;;3.78;;
57441;SDS011;43284;47.042;15.498;2022-09-16T12:29:40;5.05;;;3.17;;
57441;SDS011;43284;47.042;15.498;2022-09-16T12:32:25;6.00;;;4.07;;
57441;SDS011;43284;47.042;15.498;2022-09-16T12:35:11;7.03;;;3.70;;
57441;SDS011;43284;47.042;15.498;2022-09-16T12:37:57;5.10;;;3.88;;
57441;SDS011;43284;47.042;15.498;2022-09-16T12:40:32;5.47;;;3.58;;
57441;SDS011;43284;47.042;15.498;2022-09-16T12:43:14;4.40;;;2.85;;
57441;SDS011;43284;47.042;15.498;2022-09-16T12:49:08;4.68;;;3.10;;
57441;SDS011;43284;47.042;15.498;2022-09-16T12:57:31;6.90;;;4.15;;
57441;SDS011;43284;47.042;15.498;2022-09-16T13:00:11;4.93;;;3.63;;
57441;SDS011;43284;47.042;15.498;2022-09-16T13:02:58;4.90;;;3.35;;
57441;SDS011;43284;47.042;15.498;2022-09-16T13:05:36;5.97;;;3.83;;
57441;SDS011;43284;47.042;15.498;2022-09-16T13:08:47;6.47;;;3.45;;
57441;SDS011;43284;47.042;15.498;2022-09-16T13:13:34;4.45;;;3.03;;
57441;SDS011;43284;47.042;15.498;2022-09-16T13:16:06;5.15;;;3.38;;
57441;SDS011;43284;47.042;15.498;2022-09-16T13:18:41;4.88;;;3.60;;
57441;SDS011;43284;47.042;15.498;2022-09-16T13:21:19;3.92;;;3.38;;
57441;SDS011;43284;47.042;15.498;2022-09-16T13:24:03;5.75;;;3.25;;
57441;SDS011;43284;47.042;15.498;2022-09-16T13:26:40;5.22;;;3.45;;
57441;SDS011;43284;47.042;15.498;2022-09-16T13:29:29;5.63;;;3.08;;
57441;SDS011;43284;47.042;15.498;2022-09-16T13:32:04;4.82;;;3.08;;
57441;SDS011;43284;47.042;15.498;2022-09-16T13:35:01;3.70;;;2.65;;
57441;SDS011;43284;47.042;15.498;2022-09-16T13:37:49;7.03;;;3.22;;
57441;SDS011;43284;47.042;15.498;2022-09-16T13:45:36;4.07;;;3.00;;
57441;SDS011;43284;47.042;15.498;2022-09-16T13:48:21;4.57;;;2.80;;
57441;SDS011;43284;47.042;15.498;2022-09-16T13:50:53;5.95;;;3.17;;
57441;SDS011;43284;47.042;15.498;2022-09-16T13:53:27;3.17;;;2.80;;
57441;SDS011;43284;47.042;15.498;2022-09-16T13:56:05;7.15;;;3.15;;
57441;SDS011;43284;47.042;15.498;2022-09-16T14:01:39;4.57;;;3.07;;
57441;SDS011;43284;47.042;15.498;2022-09-16T14:15:07;7.18;;;3.55;;
57441;SDS011;43284;47.042;15.498;2022-09-16T14:20:09;4.95;;;3.33;;
57441;SDS011;43284;47.042;15.498;2022-09-16T14:22:42;5.40;;;3.15;;
57441;SDS011;43284;47.042;15.498;2022-09-16T14:25:23;4.80;;;3.20;;
57441;SDS011;43284;47.042;15.498;2022-09-16T14:28:08;4.63;;;3.03;;
57441;SDS011;43284;47.042;15.498;2022-09-16T14:30:54;3.47;;;2.70;;
57441;SDS011;43284;47.042;15.498;2022-09-16T14:33:31;4.80;;;2.90;;
57441;SDS011;43284;47.042;15.498;2022-09-16T14:36:08;3.37;;;2.20;;
57441;SDS011;43284;47.042;15.498;2022-09-16T14:38:48;4.75;;;2.53;;
57441;SDS011;43284;47.042;15.498;2022-09-16T14:41:23;4.15;;;2.70;;
57441;SDS011;43284;47.042;15.498;2022-09-16T14:44:06;4.55;;;2.40;;
57441;SDS011;43284;47.042;15.498;2022-09-16T14:46:50;3.80;;;2.53;;
57441;SDS011;43284;47.042;15.498;2022-09-16T14:49:24;4.38;;;2.88;;
57441;SDS011;43284;47.042;15.498;2022-09-16T14:51:57;3.20;;;2.50;;
57441;SDS011;43284;47.042;15.498;2022-09-16T14:54:29;4.72;;;2.40;;
57441;SDS011;43284;47.042;15.498;2022-09-16T14:56:58;2.88;;;2.35;;
57441;SDS011;43284;47.042;15.498;2022-09-16T14:59:29;2.83;;;2.33;;
57441;SDS011;43284;47.042;15.498;2022-09-16T15:02:14;2.90;;;2.35;;
57441;SDS011;43284;47.042;15.498;2022-09-16T15:07:49;3.25;;;2.38;;
57441;SDS011;43284;47.042;15.498;2022-09-16T15:10:20;4.63;;;2.85;;
57441;SDS011;43284;47.042;15.498;2022-09-16T15:12:51;3.85;;;2.55;;
57441;SDS011;43284;47.042;15.498;2022-09-16T15:15:25;4.85;;;2.60;;
57441;SDS011;43284;47.042;15.498;2022-09-16T15:23:38;3.00;;;2.30;;
57441;SDS011;43284;47.042;15.498;2022-09-16T15:26:17;4.35;;;2.38;;
57441;SDS011;43284;47.042;15.498;2022-09-16T15:28:59;3.50;;;2.22;;
57441;SDS011;43284;47.042;15.498;2022-09-16T15:31:30;3.60;;;2.40;;
57441;SDS011;43284;47.042;15.498;2022-09-16T15:34:00;4.40;;;2.63;;
57441;SDS011;43284;47.042;15.498;2022-09-16T15:36:52;3.38;;;2.10;;
57441;SDS011;43284;47.042;15.498;2022-09-16T15:39:23;6.93;;;2.42;;
57441;SDS011;43284;47.042;15.498;2022-09-16T15:42:10;2.67;;;2.40;;
57441;SDS011;43284;47.042;15.498;2022-09-16T15:44:48;3.83;;;2.78;;
57441;SDS011;43284;47.042;15.498;2022-09-16T15:47:26;4.40;;;3.20;;
57441;SDS011;43284;47.042;15.498;2022-09-16T15:50:10;3.95;;;2.15;;
57441;SDS011;43284;47.042;15.498;2022-09-16T15:55:49;3.58;;;2.67;;
57441;SDS011;43284;47.042;15.498;2022-09-16T16:01:12;5.35;;;2.35;;
57441;SDS011;43284;47.042;15.498;2022-09-16T16:03:53;4.30;;;2.78;;
57441;SDS011;43284;47.042;15.498;2022-09-16T16:09:29;5.25;;;3.05;;
57441;SDS011;43284;47.042;15.498;2022-09-16T16:12:10;5.63;;;2.35;;
57441;SDS011;43284;47.042;15.498;2022-09-16T16:14:39;4.50;;;2.33;;
57441;SDS011;43284;47.042;15.498;2022-09-16T16:17:11;5.03;;;2.58;;
57441;SDS011;43284;47.042;15.498;2022-09-16T16:19:48;4.93;;;2.92;;
57441;SDS011;43284;47.042;15.498;2022-09-16T16:22:16;3.40;;;2.60;;
57441;SDS011;43284;47.042;15.498;2022-09-16T16:24:45;4.75;;;2.63;;
57441;SDS011;43284;47.042;15.498;2022-09-16T16:27:13;2.65;;;2.15;;
57441;SDS011;43284;47.042;15.498;2022-09-16T16:29:41;2.80;;;2.13;;
57441;SDS011;43284;47.042;15.498;2022-09-16T16:32:09;4.25;;;2.30;;
57441;SDS011;43284;47.042;15.498;2022-09-16T16:34:39;2.70;;;1.90;;
57441;SDS011;43284;47.042;15.498;2022-09-16T16:37:12;2.63;;;2.05;;
57441;SDS011;43284;47.042;15.498;2022-09-16T16:39:42;3.53;;;2.15;;
57441;SDS011;43284;47.042;15.498;2022-09-16T16:42:14;2.00;;;1.55;;
57441;SDS011;43284;47.042;15.498;2022-09-16T16:44:42;4.00;;;1.80;;
57441;SDS011;43284;47.042;15.498;2022-09-16T16:47:09;2.58;;;1.95;;
57441;SDS011;43284;47.042;15.498;2022-09-16T16:49:37;5.30;;;2.50;;
57441;SDS011;43284;47.042;15.498;2022-09-16T16:52:04;3.35;;;2.22;;
57441;SDS011;43284;47.042;15.498;2022-09-16T16:54:32;3.65;;;2.55;;
57441;SDS011;43284;47.042;15.498;2022-09-16T16:57:00;5.03;;;3.30;;
57441;SDS011;43284;47.042;15.498;2022-09-16T16:59:29;6.28;;;3.70;;
57441;SDS011;43284;47.042;15.498;2022-09-16T17:01:57;4.57;;;3.20;;
57441;SDS011;43284;47.042;15.498;2022-09-16T17:04:25;5.03;;;3.55;;
57441;SDS011;43284;47.042;15.498;2022-09-16T17:06:53;3.90;;;2.72;;
57441;SDS011;43284;47.042;15.498;2022-09-16T17:09:21;3.60;;;2.58;;
57441;SDS011;43284;47.042;15.498;2022-09-16T17:11:52;3.60;;;2.67;;
57441;SDS011;43284;47.042;15.498;2022-09-16T17:14:27;2.95;;;2.53;;
57441;SDS011;43284;47.042;15.498;2022-09-16T17:16:56;3.80;;;2.95;;
57441;SDS011;43284;47.042;15.498;2022-09-16T17:19:28;4.70;;;3.20;;
57441;SDS011;43284;47.042;15.498;2022-09-16T17:22:06;4.70;;;2.90;;
57441;SDS011;43284;47.042;15.498;2022-09-16T17:24:34;3.63;;;2.83;;
57441;SDS011;43284;47.042;15.498;2022-09-16T17:27:02;7.88;;;2.85;;
57441;SDS011;43284;47.042;15.498;2022-09-16T17:29:30;4.43;;;2.80;;
57441;SDS011;43284;47.042;15.498;2022-09-16T17:32:03;5.00;;;3.33;;
57441;SDS011;43284;47.042;15.498;2022-09-16T17:34:33;6.18;;;3.53;;
57441;SDS011;43284;47.042;15.498;2022-09-16T17:37:00;4.40;;;3.10;;
57441;SDS011;43284;47.042;15.498;2022-09-16T17:39:29;4.93;;;3.50;;
57441;SDS011;43284;47.042;15.498;2022-09-16T17:41:56;5.63;;;3.70;;
57441;SDS011;43284;47.042;15.498;2022-09-16T17:44:24;4.80;;;3.17;;
57441;SDS011;43284;47.042;15.498;2022-09-16T17:46:52;5.72;;;3.70;;
57441;SDS011;43284;47.042;15.498;2022-09-16T17:49:20;5.68;;;3.40;;
57441;SDS011;43284;47.042;15.498;2022-09-16T17:51:49;4.53;;;3.35;;
57441;SDS011;43284;47.042;15.498;2022-09-16T17:54:18;5.88;;;3.67;;
57441;SDS011;43284;47.042;15.498;2022-09-16T17:56:45;8.30;;;3.75;;
57441;SDS011;43284;47.042;15.498;2022-09-16T17:59:14;5.10;;;3.42;;